Time;durP1;ratioP1;P1;durP2;ratioP2;P2;SDS_P1;SDS_P2;PMS_P1;PMS_P2;Temp;Humidity;BMP_temperature;BMP_pressure;BME280_temperature;BME280_humidity;BME280_pressure;Samples;Min_cycle;Max_cycle;Signal;HPM_P1;HPM_P2
2022/11/12 00:00:21;;;;;;;11.90;8.60;;;;;;;11.54;80.69;100841.41;5086862;28;20028;-69
2022/11/12 00:02:46;;;;;;;11.70;7.63;;;;;;;11.58;80.69;100830.41;5073790;28;20043;-69
2022/11/12 00:05:12;;;;;;;10.40;7.32;;;;;;;11.52;80.59;100826.88;5075394;28;20031;-69
2022/11/12 00:07:37;;;;;;;14.35;7.95;;;;;;;11.52;80.70;100822.13;5093363;28;20020;-69
2022/11/12 00:10:04;;;;;;;12.98;7.30;;;;;;;11.58;80.37;100824.81;5093309;28;20028;-69
2022/11/12 00:12:29;;;;;;;13.15;7.55;;;;;;;11.54;80.11;100819.00;5093369;28;20024;-69
2022/11/12 00:14:55;;;;;;;12.82;7.28;;;;;;;11.51;80.17;100814.81;5093305;28;20023;-69
2022/11/12 00:17:20;;;;;;;13.75;8.02;;;;;;;11.54;79.66;100810.59;5081613;28;20031;-69
2022/11/12 00:19:46;;;;;;;12.60;7.25;;;;;;;11.55;79.97;100819.84;5093089;28;20012;-69
2022/11/12 00:22:11;;;;;;;10.02;6.72;;;;;;;11.52;79.56;100816.53;5093150;28;20027;-69
2022/11/12 00:24:37;;;;;;;9.23;6.90;;;;;;;11.52;79.77;100815.66;5093073;28;20494;-69
2022/11/12 00:27:02;;;;;;;11.88;7.40;;;;;;;11.52;79.67;100818.47;5090729;28;20475;-69
2022/11/12 00:29:28;;;;;;;9.82;7.13;;;;;;;11.51;80.09;100822.41;5091347;28;20042;-69
2022/11/12 00:31:53;;;;;;;9.13;6.43;;;;;;;11.49;80.19;100819.09;5092732;28;20023;-69
2022/11/12 00:34:18;;;;;;;12.18;7.82;;;;;;;11.45;80.45;100818.03;5092795;28;20035;-69
2022/11/12 00:36:44;;;;;;;10.05;7.40;;;;;;;11.31;81.95;100815.22;5092800;28;20028;-69
2022/11/12 00:39:09;;;;;;;12.15;7.55;;;;;;;11.14;82.33;100825.00;5074600;28;20027;-69
2022/11/12 00:41:35;;;;;;;13.93;8.65;;;;;;;10.94;83.73;100829.81;5092803;28;20127;-69
2022/11/12 00:44:00;;;;;;;12.45;7.93;;;;;;;10.73;85.67;100828.47;5073308;28;20020;-69
2022/11/12 00:46:26;;;;;;;10.80;8.00;;;;;;;10.56;87.79;100827.03;5092350;28;20028;-69
2022/11/12 00:48:51;;;;;;;22.42;10.00;;;;;;;10.34;88.87;100833.16;5074341;28;20016;-69
2022/11/12 00:51:17;;;;;;;14.85;9.57;;;;;;;10.24;88.89;100828.56;5074257;28;20502;-69
2022/11/12 00:53:45;;;;;;;12.52;9.05;;;;;;;10.07;89.93;100831.84;5074209;28;20456;-69
2022/11/12 00:56:11;;;;;;;16.15;9.60;;;;;;;10.16;89.54;100824.47;5092489;28;20071;-69
2022/11/12 00:58:36;;;;;;;17.85;10.77;;;;;;;10.28;88.97;100826.00;5085198;28;20048;-69
2022/11/12 01:01:11;;;;;;;12.70;9.75;;;;;;;10.26;89.82;100837.47;5090888;28;20044;-69
2022/11/12 01:03:37;;;;;;;16.70;11.80;;;;;;;10.46;89.10;100833.59;5074151;28;20020;-69
2022/11/12 01:06:05;;;;;;;16.83;11.90;;;;;;;10.13;89.83;100841.00;5092261;28;20039;-69
2022/11/12 01:08:31;;;;;;;17.88;12.15;;;;;;;10.11;90.37;100827.31;5092047;28;20024;-69
2022/11/12 01:11:22;;;;;;;22.25;13.35;;;;;;;10.10;90.90;100829.28;5092113;28;20081;-69
2022/11/12 01:13:56;;;;;;;15.90;11.93;;;;;;;10.01;91.29;100828.28;5091845;28;20501;-69
2022/11/12 01:16:24;;;;;;;18.60;12.35;;;;;;;10.09;91.31;100823.97;5070353;28;20043;-69
2022/11/12 01:18:55;;;;;;;18.88;12.32;;;;;;;9.93;92.41;100826.97;5092090;28;20027;-69
2022/11/12 01:21:22;;;;;;;22.48;12.35;;;;;;;9.83;92.71;100824.28;5092015;28;20024;-69
2022/11/12 01:23:47;;;;;;;23.33;12.75;;;;;;;9.75;92.61;100820.19;5092019;28;20078;-69
2022/11/12 01:26:15;;;;;;;21.60;12.07;;;;;;;9.91;92.62;100818.06;5073762;28;20032;-69
2022/11/12 01:28:42;;;;;;;14.77;11.23;;;;;;;9.99;92.49;100805.38;5081559;28;20104;-69
2022/11/12 01:31:16;;;;;;;15.48;10.77;;;;;;;10.13;91.50;100813.84;5073900;28;20033;-69
2022/11/12 01:33:44;;;;;;;16.50;11.77;;;;;;;10.33;88.96;100812.78;5071466;28;20464;-69
2022/11/12 01:36:11;;;;;;;15.00;10.55;;;;;;;10.27;88.77;100811.16;5071524;28;20107;-69
2022/11/12 01:38:39;;;;;;;15.73;10.40;;;;;;;10.07;90.17;100813.09;5071467;28;20621;-69
2022/11/12 01:41:06;;;;;;;25.35;14.45;;;;;;;10.06;89.92;100802.22;5073079;28;20056;-69
2022/11/12 01:43:32;;;;;;;17.35;13.27;;;;;;;10.15;89.50;100802.38;5091603;28;20485;-69
2022/11/12 01:46:01;;;;;;;18.05;12.18;;;;;;;10.16;89.93;100798.44;5085393;28;20066;-69
2022/11/12 01:48:43;;;;;;;21.92;13.23;;;;;;;10.23;89.37;100798.94;5091441;28;20511;-69
2022/11/12 01:51:10;;;;;;;22.00;13.55;;;;;;;10.13;90.61;100801.84;5091396;28;20016;-69
2022/11/12 01:53:43;;;;;;;18.52;12.80;;;;;;;10.20;90.16;100802.34;5091464;28;20032;-69
2022/11/12 01:56:09;;;;;;;18.45;12.30;;;;;;;10.16;90.30;100804.88;5091313;28;20034;-69
2022/11/12 01:58:37;;;;;;;14.63;10.65;;;;;;;10.21;89.63;100804.81;5082534;28;20112;-69
2022/11/12 02:01:03;;;;;;;18.83;12.95;;;;;;;10.13;90.42;100799.88;5053184;28;20044;-69
2022/11/12 02:03:29;;;;;;;20.77;13.05;;;;;;;9.98;91.23;100798.13;5053217;28;20035;-69
2022/11/12 02:06:01;;;;;;;18.58;12.63;;;;;;;9.95;92.41;100804.28;5071134;28;20029;-69
2022/11/12 02:08:28;;;;;;;22.40;14.00;;;;;;;9.80;92.95;100794.16;5071119;28;20452;-69
2022/11/12 02:10:54;;;;;;;18.98;12.93;;;;;;;10.00;91.56;100789.41;5064142;28;20032;-69
2022/11/12 02:16:06;;;;;;;22.95;13.65;;;;;;;10.10;91.23;100800.47;5091555;28;20034;-69
2022/11/12 02:18:31;;;;;;;20.50;13.95;;;;;;;10.13;91.53;100801.84;5091294;28;20418;-69
2022/11/12 02:21:02;;;;;;;22.55;13.32;;;;;;;10.17;91.07;100789.78;5073083;28;20028;-69
2022/11/12 02:23:27;;;;;;;20.15;13.45;;;;;;;10.31;90.06;100795.44;5073251;28;20027;-69
2022/11/12 02:25:53;;;;;;;19.85;13.20;;;;;;;10.39;89.94;100797.56;5088500;28;20472;-69
2022/11/12 02:28:20;;;;;;;22.75;13.73;;;;;;;10.41;89.76;100794.50;5089523;28;20040;-69
2022/11/12 02:30:48;;;;;;;18.60;11.95;;;;;;;10.54;88.26;100792.91;5090760;28;20456;-69
2022/11/12 02:33:14;;;;;;;19.02;11.90;;;;;;;10.62;87.65;100788.63;5073061;28;20518;-69
2022/11/12 02:35:40;;;;;;;20.02;13.48;;;;;;;10.71;86.73;100795.19;5072860;28;20032;-69
2022/11/12 02:38:06;;;;;;;20.75;13.35;;;;;;;10.73;86.20;100789.28;5091042;28;20028;-69
2022/11/12 02:40:32;;;;;;;19.50;11.77;;;;;;;10.79;86.30;100790.84;5072573;28;20109;-69
2022/11/12 02:42:58;;;;;;;22.35;12.30;;;;;;;10.82;85.68;100788.28;5089280;28;20082;-69
2022/11/12 02:45:23;;;;;;;21.20;12.43;;;;;;;10.89;85.13;100793.50;5073111;28;20036;-69
2022/11/12 02:47:49;;;;;;;15.75;11.60;;;;;;;10.86;85.15;100790.47;5090957;28;20089;-69
2022/11/12 02:50:14;;;;;;;21.98;12.15;;;;;;;10.93;84.80;100793.72;5090678;28;20495;-69
2022/11/12 02:52:40;;;;;;;22.67;12.80;;;;;;;10.94;84.46;100793.44;5072470;28;20410;-69
2022/11/12 02:55:07;;;;;;;19.52;12.40;;;;;;;10.93;84.56;100805.75;5090860;28;20052;-69
2022/11/12 02:57:32;;;;;;;16.75;12.02;;;;;;;10.93;83.77;100796.53;5074983;28;20445;-69
2022/11/12 02:59:58;;;;;;;17.88;12.35;;;;;;;11.00;83.91;100808.19;5070449;28;20045;-69
2022/11/12 03:02:23;;;;;;;16.13;10.85;;;;;;;11.01;84.10;100803.38;5070687;28;20028;-68
2022/11/12 03:04:49;;;;;;;18.83;12.07;;;;;;;11.00;84.11;100801.72;5070556;28;20479;-68
2022/11/12 03:07:14;;;;;;;18.55;11.85;;;;;;;10.99;83.96;100803.72;5072193;28;20035;-68
2022/11/12 03:09:40;;;;;;;16.77;11.35;;;;;;;11.05;83.53;100808.06;5072272;28;20097;-68
2022/11/12 03:12:05;;;;;;;18.13;11.60;;;;;;;11.06;83.29;100814.53;5089548;28;20023;-68
2022/11/12 03:14:31;;;;;;;19.17;12.07;;;;;;;11.03;83.53;100815.94;5072601;28;20383;-69
2022/11/12 03:16:56;;;;;;;20.58;13.25;;;;;;;11.01;83.96;100812.63;5090674;28;20063;-68
2022/11/12 03:19:22;;;;;;;25.77;18.35;;;;;;;10.98;84.24;100812.41;5072604;28;20020;-68
2022/11/12 03:21:47;;;;;;;20.58;15.10;;;;;;;10.77;85.97;100818.31;5090371;28;20043;-68
2022/11/12 03:24:13;;;;;;;21.00;14.02;;;;;;;10.62;87.21;100809.03;5072465;28;20186;-69
2022/11/12 03:26:38;;;;;;;20.95;13.10;;;;;;;10.43;87.99;100809.03;5092053;28;20114;-68
2022/11/12 03:29:04;;;;;;;22.15;15.52;;;;;;;10.30;89.62;100809.75;5094219;28;20024;-68
2022/11/12 03:31:29;;;;;;;26.38;15.68;;;;;;;10.18;90.41;100816.59;5055785;28;20514;-68
2022/11/12 03:33:55;;;;;;;21.90;13.75;;;;;;;10.18;90.36;100808.22;5073958;28;20549;-69
2022/11/12 03:36:20;;;;;;;25.05;15.45;;;;;;;10.23;90.78;100810.13;5078055;28;20142;-68
2022/11/12 03:38:46;;;;;;;21.77;13.57;;;;;;;10.35;89.45;100806.84;5094036;28;20510;-68
2022/11/12 03:41:11;;;;;;;26.08;14.52;;;;;;;10.37;89.27;100813.81;5074400;28;20089;-68
2022/11/12 03:43:37;;;;;;;21.73;14.00;;;;;;;10.48;88.76;100817.34;5093993;28;20043;-68
2022/11/12 03:46:02;;;;;;;20.92;13.55;;;;;;;10.56;87.88;100812.22;5093715;28;20035;-68
2022/11/12 03:48:28;;;;;;;19.85;14.02;;;;;;;10.52;88.57;100806.38;5093883;28;20034;-68
2022/11/12 03:50:57;;;;;;;22.90;13.90;;;;;;;10.56;88.23;100807.47;5093413;28;20036;-68
2022/11/12 03:53:23;;;;;;;21.50;14.13;;;;;;;10.57;88.31;100814.72;5094096;28;20027;-68
2022/11/12 03:55:49;;;;;;;26.27;13.90;;;;;;;10.51;88.47;100807.50;5075245;28;20037;-68
2022/11/12 03:58:14;;;;;;;20.73;13.40;;;;;;;10.58;88.13;100807.13;5073533;28;20063;-68
2022/11/12 04:00:40;;;;;;;19.52;13.00;;;;;;;10.65;86.89;100807.59;5073126;28;20151;-69
2022/11/12 04:03:05;;;;;;;24.77;13.85;;;;;;;10.69;86.84;100805.84;5055354;28;20031;-68
2022/11/12 04:08:36;;;;;;;21.88;14.02;;;;;;;10.62;86.57;100800.63;5092554;28;20039;-68
2022/11/12 04:11:04;;;;;;;27.33;13.07;;;;;;;10.63;85.70;100804.28;5073017;28;20033;-68
2022/11/12 04:13:30;;;;;;;20.20;12.82;;;;;;;10.61;85.79;100804.56;5055275;28;20028;-68
2022/11/12 04:21:55;;;;;;;20.70;13.93;;;;;;;10.59;85.87;100815.25;5090846;28;20038;-68
2022/11/12 04:27:31;;;;;;;25.33;18.05;;;;;;;10.53;86.01;100780.91;5090698;28;20524;-68
2022/11/12 04:30:17;;;;;;;49.55;31.60;;;;;;;10.44;85.83;100791.09;5093065;28;20028;-68
2022/11/12 04:32:48;;;;;;;55.47;32.95;;;;;;;10.46;85.14;100802.81;5074665;28;20027;-68
2022/11/12 04:35:14;;;;;;;53.25;30.98;;;;;;;10.48;84.74;100797.75;5092709;28;20475;-68
2022/11/12 04:37:46;;;;;;;40.45;25.58;;;;;;;10.50;84.87;100798.31;5072806;28;20115;-68
2022/11/12 04:45:56;;;;;;;29.23;18.60;;;;;;;10.51;83.25;100793.53;5092993;28;20042;-68
2022/11/12 04:48:22;;;;;;;27.40;19.65;;;;;;;10.50;83.12;100798.31;5074207;28;20414;-68
2022/11/12 04:50:53;;;;;;;24.80;18.05;;;;;;;10.56;83.12;100798.22;5074259;28;20024;-68
2022/11/12 04:53:18;;;;;;;35.45;19.95;;;;;;;10.55;83.15;100790.97;5060440;28;20136;-68
2022/11/12 04:55:44;;;;;;;26.52;20.40;;;;;;;10.61;82.56;100798.13;5054350;28;20123;-68
2022/11/12 04:58:09;;;;;;;33.45;20.98;;;;;;;10.55;83.17;100796.56;5072230;28;20445;-68
2022/11/12 05:00:35;;;;;;;27.60;19.88;;;;;;;10.57;83.12;100802.69;5072174;28;20052;-68
2022/11/12 05:03:00;;;;;;;38.45;19.05;;;;;;;10.58;82.74;100809.94;5063512;28;20039;-68
2022/11/12 05:05:26;;;;;;;30.48;16.65;;;;;;;10.54;82.58;100804.09;5092379;28;20063;-69
2022/11/12 05:07:51;;;;;;;30.88;16.90;;;;;;;10.56;82.57;100812.22;5060343;28;20029;-68
2022/11/12 05:10:17;;;;;;;28.27;15.85;;;;;;;10.56;82.68;100812.22;5071948;28;20483;-69
2022/11/12 05:12:43;;;;;;;25.42;14.88;;;;;;;10.50;82.61;100812.28;5071854;28;20497;-68
2022/11/12 05:15:10;;;;;;;29.33;17.35;;;;;;;10.50;82.60;100812.28;5071894;28;20028;-68
2022/11/12 05:17:35;;;;;;;28.10;16.20;;;;;;;10.45;82.85;100812.34;5086803;28;20039;-68
2022/11/12 05:20:01;;;;;;;21.35;14.05;;;;;;;10.46;83.14;100813.19;5092031;28;20024;-68
2022/11/12 05:22:27;;;;;;;23.48;13.75;;;;;;;10.43;83.39;100814.63;5076443;28;20036;-68
2022/11/12 05:24:52;;;;;;;29.02;19.05;;;;;;;10.37;83.30;100818.56;5071702;28;20539;-68
2022/11/12 05:27:19;;;;;;;27.50;18.13;;;;;;;10.39;83.29;100819.94;5071702;28;20031;-68
2022/11/12 05:29:45;;;;;;;28.17;16.83;;;;;;;10.36;83.42;100814.13;5071096;28;20028;-68
2022/11/12 05:32:14;;;;;;;30.95;17.17;;;;;;;10.30;83.90;100826.53;5070665;28;20031;-68
2022/11/12 05:34:40;;;;;;;27.05;18.63;;;;;;;10.36;83.60;100822.50;5073700;28;20031;-68
2022/11/12 05:37:08;;;;;;;29.58;20.13;;;;;;;10.39;83.43;100833.94;5068145;28;20032;-68
2022/11/12 05:39:33;;;;;;;28.00;19.73;;;;;;;10.36;84.04;100831.75;5091664;28;20038;-68
2022/11/12 05:41:59;;;;;;;27.23;16.73;;;;;;;10.36;83.78;100833.69;5091582;28;20032;-69
2022/11/12 05:44:24;;;;;;;24.08;15.45;;;;;;;10.34;83.66;100845.19;5091587;28;20107;-68
2022/11/12 05:46:50;;;;;;;20.35;14.93;;;;;;;9.62;87.46;100846.84;5073357;28;20020;-68
2022/11/12 05:49:16;;;;;;;21.77;15.18;;;;;;;9.49;89.58;100850.34;5090899;28;20020;-68
2022/11/12 05:51:43;;;;;;;25.40;14.60;;;;;;;9.47;89.51;100856.25;5090237;28;20032;-68
2022/11/12 05:54:09;;;;;;;212.40;106.85;;;;;;;9.59;89.38;100861.41;5091394;28;20024;-68
2022/11/12 05:56:36;;;;;;;53.50;29.52;;;;;;;9.61;89.37;100866.72;5070068;28;20487;-68
2022/11/12 05:59:03;;;;;;;59.42;29.98;;;;;;;9.72;89.09;100873.88;5075258;28;20043;-68
2022/11/12 06:01:29;;;;;;;53.72;26.45;;;;;;;9.79;88.33;100871.53;5080586;28;20037;-69
2022/11/12 06:03:55;;;;;;;43.28;22.40;;;;;;;9.89;87.92;100873.38;5071215;28;20032;-68
2022/11/12 06:06:20;;;;;;;29.50;18.00;;;;;;;9.93;87.45;100880.06;5071219;28;20111;-68
2022/11/12 06:08:46;;;;;;;24.20;16.27;;;;;;;10.00;87.20;100884.47;5085430;28;20028;-68
2022/11/12 06:11:11;;;;;;;20.77;15.38;;;;;;;10.10;86.52;100896.38;5086058;28;20392;-68
2022/11/12 06:13:37;;;;;;;25.65;13.77;;;;;;;10.11;86.19;100898.03;5082312;28;20036;-68
2022/11/12 06:16:02;;;;;;;22.08;15.00;;;;;;;10.05;86.93;100904.00;5071158;28;20031;-68
2022/11/12 06:18:28;;;;;;;21.15;14.38;;;;;;;10.05;86.68;100898.41;5088337;28;20536;-68
2022/11/12 06:23:43;;;;;;;23.98;16.65;;;;;;;10.13;86.38;100903.31;5071962;28;20051;-68
2022/11/12 06:26:08;;;;;;;27.20;18.55;;;;;;;9.90;88.02;100914.22;5084276;28;20032;-67
2022/11/12 06:28:34;;;;;;;34.80;16.48;;;;;;;9.72;88.46;100913.00;5087175;28;20032;-68
2022/11/12 06:30:59;;;;;;;22.85;14.18;;;;;;;9.61;89.32;100929.00;5072997;28;20072;-68
2022/11/12 06:33:25;;;;;;;21.60;13.57;;;;;;;9.39;90.98;100915.50;5087625;28;20430;-68
2022/11/12 06:36:01;;;;;;;27.88;16.50;;;;;;;9.27;92.30;100929.81;5088533;28;20028;-67
2022/11/12 06:38:35;;;;;;;30.98;17.25;;;;;;;9.26;92.13;100934.59;5071731;28;20024;-67
2022/11/12 06:41:00;;;;;;;30.55;18.00;;;;;;;9.08;93.46;100933.31;5069248;28;20487;-67
2022/11/12 06:43:28;;;;;;;31.20;16.98;;;;;;;8.80;96.27;100944.06;5070676;28;20020;-67
2022/11/12 06:45:57;;;;;;;30.65;17.25;;;;;;;8.85;97.36;100946.84;5065692;28;20030;-68
2022/11/12 06:48:23;;;;;;;31.08;18.63;;;;;;;8.97;97.97;100949.28;5090203;28;20038;-68
2022/11/12 06:50:48;;;;;;;33.70;18.75;;;;;;;8.94;97.71;100944.28;5089522;28;20087;-67
2022/11/12 06:53:14;;;;;;;40.17;20.80;;;;;;;9.09;97.06;100940.56;5089962;28;20032;-67
2022/11/12 06:55:39;;;;;;;32.03;19.98;;;;;;;8.97;97.92;100952.06;5070496;28;20039;-66
2022/11/12 06:58:05;;;;;;;34.20;21.23;;;;;;;8.89;97.17;100951.84;5071229;28;20021;-66
2022/11/12 07:00:30;;;;;;;29.55;18.10;;;;;;;8.95;96.86;100956.28;5065505;28;20052;-67
2022/11/12 07:02:56;;;;;;;28.67;18.00;;;;;;;8.74;96.74;100955.53;5056524;28;20024;-67
2022/11/12 07:05:21;;;;;;;26.73;17.40;;;;;;;8.74;97.17;100950.81;5074305;28;20056;-68
2022/11/12 07:07:46;;;;;;;28.35;17.10;;;;;;;8.68;97.12;100949.16;5073252;28;20027;-67
2022/11/12 07:10:12;;;;;;;25.20;14.77;;;;;;;8.75;97.07;100963.63;5093528;28;20024;-69
2022/11/12 07:12:37;;;;;;;24.42;15.15;;;;;;;8.51;97.10;100964.28;5077053;28;20032;-66
2022/11/12 07:15:03;;;;;;;29.15;15.43;;;;;;;8.46;97.07;100958.72;5057692;28;20029;-66
2022/11/12 07:17:29;;;;;;;22.75;13.43;;;;;;;8.46;96.98;100963.44;5074523;28;20059;-66
2022/11/12 07:19:55;;;;;;;24.25;12.73;;;;;;;8.46;96.67;100966.22;5074428;28;20379;-66
2022/11/12 07:22:20;;;;;;;23.38;13.48;;;;;;;8.40;97.06;100957.03;5077307;28;20020;-66
2022/11/12 07:24:45;;;;;;;20.60;11.27;;;;;;;8.38;95.49;100964.88;5093900;28;20031;-66
2022/11/12 07:27:11;;;;;;;14.65;10.38;;;;;;;8.46;94.39;100958.72;5094347;28;20024;-66
2022/11/12 07:29:36;;;;;;;16.25;8.35;;;;;;;8.43;91.44;100962.88;5076050;28;20028;-66
2022/11/12 07:32:02;;;;;;;18.45;8.98;;;;;;;8.42;92.03;100963.16;5094319;28;20039;-66
2022/11/12 07:34:27;;;;;;;11.50;7.25;;;;;;;8.28;91.34;100960.97;5066951;28;20048;-66
2022/11/12 07:36:53;;;;;;;11.95;6.68;;;;;;;8.31;90.72;100967.09;5073976;28;20078;-66
2022/11/12 07:39:18;;;;;;;8.70;6.03;;;;;;;8.32;91.16;100974.34;5055911;28;20479;-66
2022/11/12 07:41:43;;;;;;;11.60;6.30;;;;;;;8.34;90.77;100969.34;5056003;28;20463;-66
2022/11/12 07:44:09;;;;;;;9.15;5.53;;;;;;;8.24;88.98;100978.56;5073812;28;20035;-67
2022/11/12 07:46:35;;;;;;;18.70;9.63;;;;;;;8.28;90.79;100977.72;5055804;28;20556;-66
2022/11/12 07:49:00;;;;;;;10.25;5.70;;;;;;;8.37;90.93;100980.75;5078877;28;20414;-66
2022/11/12 07:51:28;;;;;;;8.65;5.93;;;;;;;8.39;92.88;100981.31;5074200;28;20032;-66
2022/11/12 07:53:55;;;;;;;21.10;14.75;;;;;;;8.39;93.66;100978.53;5081748;28;20024;-66
2022/11/12 07:56:23;;;;;;;8.10;4.82;;;;;;;8.42;91.62;100989.09;5073764;28;20401;-66
2022/11/12 07:58:49;;;;;;;6.82;5.47;;;;;;;8.42;91.11;100988.25;5073328;28;20032;-67
2022/11/12 08:01:37;;;;;;;9.30;5.60;;;;;;;8.26;90.34;100996.66;5056015;28;20127;-67
2022/11/12 08:04:08;;;;;;;7.00;4.47;;;;;;;8.29;90.92;100996.09;5073329;28;20047;-67
2022/11/12 08:06:34;;;;;;;6.10;3.80;;;;;;;8.26;88.65;101005.03;5073393;28;20025;-67
2022/11/12 08:09:04;;;;;;;7.53;4.47;;;;;;;8.25;89.38;100999.72;5073188;28;20106;-67
2022/11/12 08:11:29;;;;;;;6.40;4.65;;;;;;;8.23;89.34;101002.81;5055937;28;20058;-69
2022/11/12 08:13:55;;;;;;;11.98;8.95;;;;;;;8.31;90.28;100997.78;5073093;28;20021;-69
2022/11/12 08:16:20;;;;;;;30.42;27.02;;;;;;;8.38;90.44;101003.91;5079245;28;20020;-66
2022/11/12 08:18:46;;;;;;;77.32;61.40;;;;;;;8.30;89.84;100994.16;5055222;28;20024;-66
2022/11/12 08:21:14;;;;;;;12.48;8.63;;;;;;;8.32;89.86;100988.28;5073230;28;20395;-67
2022/11/12 08:23:40;;;;;;;7.40;4.75;;;;;;;8.40;88.86;101001.66;5072970;28;20028;-66
2022/11/12 08:26:09;;;;;;;59.35;53.42;;;;;;;8.28;90.00;100993.63;5072837;28;20032;-67
2022/11/12 08:28:36;;;;;;;67.10;60.75;;;;;;;8.33;91.64;100998.34;5072960;28;20505;-66
2022/11/12 08:31:13;;;;;;;10.85;8.25;;;;;;;8.29;91.17;101004.47;5072719;28;20038;-66
2022/11/12 08:33:40;;;;;;;23.75;21.42;;;;;;;8.29;92.20;101006.44;5073431;28;20173;-66
2022/11/12 08:36:08;;;;;;;55.55;50.88;;;;;;;8.45;92.19;101012.81;5091293;28;20028;-66
2022/11/12 08:38:34;;;;;;;31.67;28.33;;;;;;;8.43;92.47;101015.88;5083567;28;20024;-67
2022/11/12 08:41:05;;;;;;;27.42;24.45;;;;;;;8.47;90.73;101013.38;5092876;28;20051;-66
2022/11/12 08:43:30;;;;;;;12.95;11.88;;;;;;;8.41;91.44;101014.47;5092944;28;20036;-66
2022/11/12 08:46:00;;;;;;;15.05;13.77;;;;;;;8.47;91.55;101016.16;5092726;28;20069;-66
2022/11/12 08:48:27;;;;;;;6.65;6.05;;;;;;;8.31;90.82;101017.28;5092840;28;20050;-66
2022/11/12 08:50:52;;;;;;;10.98;10.00;;;;;;;8.12;90.27;101012.31;5092524;28;20050;-66
2022/11/12 08:53:21;;;;;;;24.80;22.67;;;;;;;8.29;91.52;101021.19;5070796;28;20024;-66
2022/11/12 08:55:46;;;;;;;15.05;13.55;;;;;;;8.27;90.61;101022.63;5092655;28;20069;-66
2022/11/12 08:58:12;;;;;;;7.82;6.95;;;;;;;8.44;91.74;101030.63;5092650;28;20020;-67
2022/11/12 09:00:40;;;;;;;8.50;7.70;;;;;;;8.38;90.50;101015.06;5090159;28;20521;-67
2022/11/12 09:03:11;;;;;;;14.30;11.82;;;;;;;8.42;91.21;101017.00;5092497;28;20525;-66
2022/11/12 09:05:37;;;;;;;6.63;5.82;;;;;;;8.37;92.14;101021.75;5074499;28;20024;-66
2022/11/12 09:08:15;;;;;;;10.80;7.55;;;;;;;8.27;90.51;101020.66;5090443;28;20024;-66
2022/11/12 09:10:41;;;;;;;6.00;3.85;;;;;;;8.27;90.59;101017.84;5074077;28;20028;-66
2022/11/12 09:13:07;;;;;;;9.23;5.47;;;;;;;8.34;90.00;101013.97;5074082;28;20027;-66
2022/11/12 09:15:32;;;;;;;6.72;4.57;;;;;;;8.39;90.50;101005.56;5092107;28;20031;-66
2022/11/12 09:18:03;;;;;;;6.85;4.43;;;;;;;8.45;90.38;101010.03;5092266;28;20031;-67
2022/11/12 09:20:30;;;;;;;6.72;4.55;;;;;;;8.54;91.06;101007.50;5074017;28;20453;-67
2022/11/12 09:23:00;;;;;;;8.20;4.10;;;;;;;8.57;89.60;101010.56;5081940;28;20112;-66
2022/11/12 09:25:26;;;;;;;4.28;3.47;;;;;;;8.71;89.42;101012.75;5071785;28;20020;-67
2022/11/12 09:27:51;;;;;;;4.70;3.53;;;;;;;8.77;89.30;101008.00;5071730;28;20509;-67
2022/11/12 09:30:17;;;;;;;6.25;3.83;;;;;;;8.76;89.42;101014.69;5053657;28;20063;-66
2022/11/12 09:32:42;;;;;;;5.32;4.03;;;;;;;8.77;88.00;101008.81;5053767;28;20032;-66
2022/11/12 09:35:08;;;;;;;5.53;3.17;;;;;;;9.10;87.91;101000.84;5071677;28;20027;-66
2022/11/12 09:37:36;;;;;;;3.58;3.05;;;;;;;9.08;86.16;101011.47;5071556;28;20074;-67
2022/11/12 09:40:05;;;;;;;6.88;3.45;;;;;;;8.98;87.00;101005.94;5071612;28;20036;-67
2022/11/12 09:45:56;;;;;;;5.70;3.35;;;;;;;9.17;86.90;101002.47;5287432;23;20518;-66
2022/11/12 09:48:35;;;;;;;5.47;3.10;;;;;;;9.30;88.35;100999.06;5059145;28;20033;-66
2022/11/12 09:51:12;;;;;;;5.90;3.30;;;;;;;9.32;88.08;101004.34;5033812;28;20021;-66
2022/11/12 09:53:55;;;;;;;4.50;3.00;;;;;;;9.43;85.99;101002.34;5066804;28;20399;-66
2022/11/12 09:56:21;;;;;;;4.95;3.75;;;;;;;9.54;86.85;101003.94;5066049;28;20036;-66
2022/11/12 09:58:47;;;;;;;7.45;4.38;;;;;;;9.50;85.01;100994.44;5051784;28;20025;-66
2022/11/12 10:01:29;;;;;;;6.80;4.15;;;;;;;9.67;84.41;100999.63;5051679;28;20109;-66
2022/11/12 10:04:22;;;;;;;9.77;7.88;;;;;;;9.71;84.84;100995.13;5051812;28;20543;-66
2022/11/12 10:07:04;;;;;;;6.68;4.57;;;;;;;9.71;85.38;100994.31;5047234;28;20051;-66
2022/11/12 10:09:46;;;;;;;7.43;5.70;;;;;;;9.81;84.04;100975.47;5071750;28;20024;-67
2022/11/12 10:12:44;;;;;;;6.65;5.13;;;;;;;9.87;82.88;100987.44;5071650;28;20463;-66
2022/11/12 10:18:36;;;;;;;7.72;4.70;;;;;;;9.76;81.61;100980.28;5071611;28;20426;-66
2022/11/12 10:21:19;;;;;;;9.23;4.90;;;;;;;9.63;81.29;100987.38;5071559;28;20090;-66
2022/11/12 10:23:48;;;;;;;7.63;4.82;;;;;;;9.80;81.25;100990.56;5071802;28;20513;-66
2022/11/12 10:26:19;;;;;;;14.77;7.85;;;;;;;9.77;79.60;100982.78;5069594;28;20064;-66
2022/11/12 10:29:01;;;;;;;15.25;8.18;;;;;;;9.86;78.43;100991.38;5071606;28;20412;-66
2022/11/12 10:31:26;;;;;;;14.35;6.50;;;;;;;9.78;78.56;100978.03;5071440;28;20029;-66
2022/11/12 10:34:24;;;;;;;41.10;16.10;;;;;;;9.93;80.03;100986.28;5072155;28;20040;-66
2022/11/12 10:36:56;;;;;;;32.45;12.60;;;;;;;9.86;79.87;100988.56;5048914;28;20021;-66
2022/11/12 10:39:39;;;;;;;11.88;5.45;;;;;;;10.01;80.29;100990.41;5037813;28;20033;-66
2022/11/12 10:42:11;;;;;;;15.55;7.60;;;;;;;10.17;81.01;100988.28;5037202;28;20036;-66
2022/11/12 10:44:38;;;;;;;5.95;3.72;;;;;;;10.20;79.40;100996.09;5053205;28;20502;-66
2022/11/12 10:47:25;;;;;;;5.43;3.72;;;;;;;10.22;78.85;100988.22;5027064;28;20032;-66
2022/11/12 10:50:07;;;;;;;7.47;4.30;;;;;;;10.11;77.86;100986.66;5055100;28;20059;-66
2022/11/12 10:52:33;;;;;;;12.90;5.75;;;;;;;10.15;78.37;100987.75;5055170;28;20383;-66
2022/11/12 10:55:16;;;;;;;8.68;5.93;;;;;;;10.13;79.24;100984.41;5055139;28;20025;-66
2022/11/12 10:57:42;;;;;;;11.55;6.35;;;;;;;10.28;77.09;100991.00;5036447;28;20025;-66
2022/11/12 11:00:14;;;;;;;8.10;5.13;;;;;;;10.32;77.86;100989.25;5055264;28;20017;-66
2022/11/12 11:02:53;;;;;;;5.68;4.75;;;;;;;10.21;76.96;100989.34;5036949;28;20040;-66
2022/11/12 11:05:33;;;;;;;8.95;6.05;;;;;;;10.14;78.70;100986.09;5055039;28;20480;-66
2022/11/12 11:08:00;;;;;;;22.17;13.85;;;;;;;10.28;76.44;100991.81;5036076;28;20028;-66
2022/11/12 11:10:31;;;;;;;9.43;5.32;;;;;;;10.23;74.71;100983.47;5036895;28;20025;-66
2022/11/12 11:13:18;;;;;;;6.22;4.25;;;;;;;10.40;75.96;100985.81;5036952;28;20719;-66
2022/11/12 11:16:04;;;;;;;4.95;3.38;;;;;;;10.59;74.98;100969.13;5054853;28;20550;-66
2022/11/12 11:18:32;;;;;;;23.13;14.23;;;;;;;10.53;75.92;100965.56;5055222;28;20401;-66
2022/11/12 11:21:26;;;;;;;20.10;14.38;;;;;;;10.59;74.13;100973.88;5054700;28;20104;-66
2022/11/12 11:24:20;;;;;;;15.57;8.32;;;;;;;10.58;74.12;100972.22;5054743;28;20029;-66
2022/11/12 11:27:14;;;;;;;10.48;5.00;;;;;;;10.61;74.24;100972.44;5011743;28;20033;-66
2022/11/12 11:29:57;;;;;;;15.88;8.63;;;;;;;10.43;74.65;100968.47;5054678;28;20032;-66
2022/11/12 11:32:48;;;;;;;16.73;9.63;;;;;;;10.28;75.73;100965.81;5036618;28;20047;-66
2022/11/12 11:35:40;;;;;;;15.93;10.85;;;;;;;10.19;77.05;100972.06;5054834;28;20434;-66
2022/11/12 11:38:15;;;;;;;14.60;9.10;;;;;;;10.20;76.13;100973.72;5035427;28;20552;-66
2022/11/12 11:40:52;;;;;;;15.68;9.50;;;;;;;9.94;75.52;100971.19;5054532;28;20056;-66
2022/11/12 11:43:45;;;;;;;11.25;5.53;;;;;;;10.28;74.91;100965.81;5054268;28;20402;-66
2022/11/12 11:46:33;;;;;;;6.45;5.20;;;;;;;10.38;72.93;100968.50;5051048;28;20048;-66
2022/11/12 11:49:12;;;;;;;8.13;5.65;;;;;;;10.58;74.03;100966.63;5054229;28;20032;-66
2022/11/12 11:52:06;;;;;;;8.88;5.78;;;;;;;10.60;73.19;100965.19;5054110;28;20368;-66
2022/11/12 11:54:40;;;;;;;9.13;5.22;;;;;;;10.17;73.46;100962.28;5054109;28;20447;-66